Time;durP1;ratioP1;P1;durP2;ratioP2;P2;SDS_P1;SDS_P2;PMS_P1;PMS_P2;Temp;Humidity;BMP_temperature;BMP_pressure;BME280_temperature;BME280_humidity;BME280_pressure;Samples;Min_cycle;Max_cycle;Signal;HPM_P1;HPM_P2
2023/01/10 00:02:11;;;;;;;0.50;0.40;;;5.60;99.90;;;;;;4997727;28;20528;-82
2023/01/10 00:04:38;;;;;;;4.40;3.15;;;5.60;99.90;;;;;;4997128;28;20228;-81
2023/01/10 00:07:05;;;;;;;11.15;1.40;;;5.50;99.90;;;;;;4998099;28;20227;-81
2023/01/10 00:09:32;;;;;;;0.60;0.40;;;5.40;99.90;;;;;;4997437;28;20562;-82
2023/01/10 00:14:43;;;;;;;0.50;0.40;;;5.30;99.90;;;;;;4998039;28;20231;-82
2023/01/10 00:17:11;;;;;;;4.72;1.35;;;5.30;99.90;;;;;;4998111;28;20224;-82
2023/01/10 00:19:38;;;;;;;3.75;3.45;;;5.20;99.90;;;;;;4998261;28;20732;-81
2023/01/10 00:22:13;;;;;;;1.15;0.60;;;5.30;99.90;;;;;;4998233;28;20244;-81
2023/01/10 00:24:41;;;;;;;2.20;2.00;;;5.30;99.90;;;;;;4997183;28;20282;-81
2023/01/10 00:27:11;;;;;;;0.88;0.88;;;5.30;99.90;;;;;;4998349;28;20258;-80
2023/01/10 00:29:38;;;;;;;3.80;1.60;;;5.30;99.90;;;;;;4998721;28;20268;-82
2023/01/10 00:32:05;;;;;;;6.13;2.50;;;5.30;99.90;;;;;;4997596;28;20315;-81
2023/01/10 00:34:34;;;;;;;0.50;0.50;;;5.30;99.90;;;;;;4996935;28;20212;-81
2023/01/10 00:37:01;;;;;;;1.02;0.93;;;5.40;99.90;;;;;;4997887;28;20307;-80
2023/01/10 00:39:28;;;;;;;3.90;1.95;;;5.40;99.90;;;;;;4998432;28;20197;-80
2023/01/10 00:44:39;;;;;;;7.93;3.60;;;5.50;99.90;;;;;;4997723;28;20219;-79
2023/01/10 00:47:06;;;;;;;1.48;1.35;;;5.50;99.90;;;;;;4998243;28;20275;-79
2023/01/10 00:49:34;;;;;;;1.60;1.17;;;5.50;99.90;;;;;;4997561;28;20566;-79
2023/01/10 00:52:01;;;;;;;0.60;0.60;;;5.50;99.90;;;;;;4997773;28;20288;-81
2023/01/10 00:54:28;;;;;;;0.50;0.50;;;5.40;99.90;;;;;;4996707;28;20196;-80
2023/01/10 00:56:55;;;;;;;0.60;0.52;;;5.40;99.90;;;;;;4998172;28;20260;-80
2023/01/10 00:59:23;;;;;;;1.77;1.60;;;5.30;99.90;;;;;;4997197;28;20232;-80
2023/01/10 01:01:50;;;;;;;0.88;0.88;;;5.30;99.90;;;;;;4998268;28;20893;-80
2023/01/10 01:04:17;;;;;;;0.60;0.60;;;5.30;99.90;;;;;;4996773;28;20287;-80
2023/01/10 01:06:46;;;;;;;6.47;3.90;;;5.40;99.90;;;;;;4998425;28;20288;-78
2023/01/10 01:09:13;;;;;;;4.97;1.17;;;5.40;99.90;;;;;;5001180;28;20629;-80
2023/01/10 01:11:40;;;;;;;1.65;1.55;;;5.40;99.90;;;;;;4997777;28;20303;-80
2023/01/10 01:14:07;;;;;;;0.82;0.82;;;5.50;99.90;;;;;;4996278;28;20220;-81
2023/01/10 01:16:34;;;;;;;0.60;0.57;;;5.50;99.90;;;;;;4996904;28;20260;-81
2023/01/10 01:19:01;;;;;;;2.05;1.85;;;5.50;99.90;;;;;;4997452;28;20312;-80
2023/01/10 01:21:27;;;;;;;3.08;1.58;;;5.50;99.90;;;;;;4996743;28;20782;-79
2023/01/10 01:23:56;;;;;;;0.50;0.40;;;5.60;99.90;;;;;;4996161;28;20559;-79
2023/01/10 01:26:23;;;;;;;2.85;1.13;;;5.60;99.90;;;;;;5002305;28;20215;-80
2023/01/10 01:28:50;;;;;;;3.05;2.53;;;5.60;99.90;;;;;;5036525;28;20306;-81
2023/01/10 01:31:18;;;;;;;0.57;0.57;;;5.70;99.90;;;;;;5035711;28;20258;-82
2023/01/10 01:33:45;;;;;;;4.63;1.20;;;5.70;99.90;;;;;;5035791;28;20290;-79
2023/01/10 01:36:12;;;;;;;1.15;1.05;;;5.70;99.90;;;;;;5035276;28;20257;-82
2023/01/10 01:38:43;;;;;;;0.50;0.40;;;5.80;99.90;;;;;;5035861;28;20219;-81
2023/01/10 01:44:02;;;;;;;2.45;1.10;;;5.90;99.90;;;;;;5034802;28;20202;-80
2023/01/10 01:46:30;;;;;;;0.50;0.50;;;5.90;99.90;;;;;;5035893;28;20949;-81
2023/01/10 01:48:57;;;;;;;0.60;0.60;;;5.90;99.90;;;;;;5036088;28;20287;-80
2023/01/10 01:51:28;;;;;;;2.38;1.25;;;5.90;99.90;;;;;;5035587;28;20651;-82
2023/01/10 01:53:59;;;;;;;46.83;2.03;;;5.90;99.90;;;;;;5034880;28;20286;-78
2023/01/10 01:56:30;;;;;;;0.50;0.40;;;5.90;99.90;;;;;;5035666;28;20183;-82
2023/01/10 01:59:02;;;;;;;8.75;0.85;;;6.00;99.90;;;;;;5035878;28;20218;-80
2023/01/10 02:01:31;;;;;;;0.82;0.82;;;6.00;99.90;;;;;;5035594;28;20212;-80
2023/01/10 02:04:03;;;;;;;3.60;2.35;;;5.90;99.90;;;;;;5034855;28;20197;-80
2023/01/10 02:06:30;;;;;;;1.95;1.95;;;6.00;99.90;;;;;;5035734;28;20179;-82
2023/01/10 02:09:05;;;;;;;2.45;0.68;;;5.90;99.90;;;;;;5035152;28;20198;-81
2023/01/10 02:11:33;;;;;;;20.55;1.88;;;5.90;99.90;;;;;;5034631;28;20301;-79
2023/01/10 02:14:02;;;;;;;2.25;1.15;;;5.90;99.90;;;;;;5034230;28;20287;-78
2023/01/10 02:16:29;;;;;;;0.60;0.57;;;5.90;99.90;;;;;;5034858;28;20199;-81
2023/01/10 02:18:56;;;;;;;0.70;0.50;;;5.90;99.90;;;;;;5035539;28;20223;-83
2023/01/10 02:21:52;;;;;;;0.60;0.50;;;6.00;99.90;;;;;;5035583;28;20215;-81
2023/01/10 02:24:53;;;;;;;0.50;0.40;;;6.00;99.90;;;;;;5031346;28;20199;-81
2023/01/10 02:27:26;;;;;;;1.63;1.38;;;6.00;99.90;;;;;;5035015;28;20179;-82
2023/01/10 02:30:23;;;;;;;0.50;0.40;;;5.90;99.90;;;;;;5035489;28;20199;-83
2023/01/10 02:32:58;;;;;;;1.60;0.90;;;5.90;99.90;;;;;;5035820;28;20215;-81
2023/01/10 02:35:50;;;;;;;0.50;0.40;;;5.90;99.90;;;;;;5035227;28;20187;-81
2023/01/10 02:38:28;;;;;;;0.70;0.70;;;5.90;99.90;;;;;;5035849;28;20219;-82
2023/01/10 02:41:05;;;;;;;0.70;0.60;;;5.80;99.90;;;;;;5035978;28;20183;-80
2023/01/10 02:43:37;;;;;;;3.25;1.58;;;5.70;99.90;;;;;;5035796;28;20217;-81
2023/01/10 02:46:08;;;;;;;0.50;0.50;;;5.70;99.90;;;;;;5035091;28;20685;-83
2023/01/10 02:48:37;;;;;;;0.60;0.57;;;5.60;99.90;;;;;;5035521;28;20191;-82
2023/01/10 02:51:09;;;;;;;2.55;1.23;;;5.50;99.90;;;;;;5035302;28;20703;-81
2023/01/10 02:53:38;;;;;;;2.72;1.30;;;5.50;99.90;;;;;;5035490;28;20221;-79
2023/01/10 02:56:25;;;;;;;2.35;0.98;;;5.50;99.90;;;;;;5034880;28;20199;-78
2023/01/10 02:59:12;;;;;;;0.50;0.50;;;5.60;99.90;;;;;;5035910;28;20614;-81
2023/01/10 03:01:48;;;;;;;2.15;0.80;;;5.60;99.90;;;;;;5035422;28;20219;-79
2023/01/10 03:04:25;;;;;;;1.35;1.13;;;5.60;99.90;;;;;;5034795;28;20179;-81
2023/01/10 03:06:59;;;;;;;0.77;0.77;;;5.60;99.90;;;;;;5035714;28;20190;-80
2023/01/10 03:09:33;;;;;;;4.30;1.02;;;5.60;99.90;;;;;;5034309;28;20560;-80
2023/01/10 03:12:08;;;;;;;3.20;2.90;;;5.60;99.90;;;;;;5035000;28;20294;-81
2023/01/10 03:14:37;;;;;;;0.57;0.55;;;5.60;99.90;;;;;;5034640;28;20207;-83
2023/01/10 03:17:08;;;;;;;0.80;0.52;;;5.60;99.90;;;;;;5035299;28;20209;-78
2023/01/10 03:19:47;;;;;;;1.73;1.05;;;5.60;99.90;;;;;;5035352;28;20688;-82
2023/01/10 03:22:15;;;;;;;6.00;3.05;;;5.60;99.90;;;;;;5035167;28;20226;-82
2023/01/10 03:24:46;;;;;;;0.70;0.50;;;5.60;99.90;;;;;;5034121;28;20302;-79
2023/01/10 03:27:20;;;;;;;0.50;0.50;;;5.50;99.90;;;;;;5035253;28;20191;-79
2023/01/10 03:29:54;;;;;;;1.40;1.30;;;5.50;99.90;;;;;;5035068;28;20191;-79
2023/01/10 03:32:25;;;;;;;3.05;0.65;;;5.40;99.90;;;;;;5034924;28;20305;-81
2023/01/10 03:34:54;;;;;;;2.13;1.92;;;5.40;99.90;;;;;;5034907;28;20192;-78
2023/01/10 03:37:32;;;;;;;2.10;0.98;;;5.30;99.90;;;;;;5035812;28;20201;-80
2023/01/10 03:40:05;;;;;;;1.40;1.17;;;5.30;99.90;;;;;;5038630;28;20187;-81
2023/01/10 03:45:29;;;;;;;0.50;0.40;;;5.20;99.90;;;;;;5015029;28;20188;-79
2023/01/10 03:48:02;;;;;;;2.15;1.50;;;5.10;99.90;;;;;;5037977;28;20263;-79
2023/01/10 03:50:31;;;;;;;0.50;0.40;;;5.10;99.90;;;;;;5038339;28;20454;-79
2023/01/10 03:52:58;;;;;;;4.43;2.25;;;5.00;99.90;;;;;;5038211;28;20728;-79
2023/01/10 03:55:28;;;;;;;0.50;0.50;;;5.00;99.90;;;;;;5038087;28;20568;-80
2023/01/10 03:57:55;;;;;;;0.50;0.40;;;4.90;99.90;;;;;;5038827;28;20692;-81
2023/01/10 04:00:23;;;;;;;0.60;0.57;;;4.90;99.90;;;;;;5038305;28;20755;-81
2023/01/10 04:02:50;;;;;;;4.00;1.30;;;4.80;99.90;;;;;;5038394;28;20246;-80
2023/01/10 04:05:17;;;;;;;0.50;0.40;;;4.80;99.90;;;;;;5037676;28;20631;-81
2023/01/10 04:07:47;;;;;;;0.95;0.95;;;4.80;99.90;;;;;;5037524;28;20195;-80
2023/01/10 04:10:15;;;;;;;1.02;0.93;;;4.80;99.90;;;;;;5038268;28;20306;-79
2023/01/10 04:12:42;;;;;;;0.95;0.95;;;4.80;99.90;;;;;;5038379;28;20216;-81
2023/01/10 04:15:09;;;;;;;0.70;0.70;;;4.80;99.90;;;;;;5037094;28;20291;-81
2023/01/10 04:17:36;;;;;;;2.20;1.05;;;4.80;99.90;;;;;;5038116;28;20283;-81
2023/01/10 04:20:04;;;;;;;3.92;0.73;;;4.80;99.90;;;;;;5038421;28;20215;-80
2023/01/10 04:22:31;;;;;;;1.00;0.60;;;4.80;99.90;;;;;;5037701;28;20338;-80
2023/01/10 04:24:59;;;;;;;1.63;1.08;;;4.80;99.90;;;;;;5036559;28;20199;-81
2023/01/10 04:27:26;;;;;;;0.70;0.70;;;4.90;99.90;;;;;;5037579;28;20206;-81
2023/01/10 04:29:53;;;;;;;8.32;1.77;;;4.90;99.90;;;;;;5038280;28;20286;-80
2023/01/10 04:32:20;;;;;;;3.70;1.30;;;4.90;99.90;;;;;;5037566;28;20779;-80
2023/01/10 04:34:47;;;;;;;2.08;1.98;;;4.90;99.90;;;;;;5041208;28;20259;-81
2023/01/10 04:37:13;;;;;;;0.50;0.40;;;4.80;99.90;;;;;;5047044;28;20200;-80
2023/01/10 04:39:40;;;;;;;1.83;1.73;;;4.80;99.90;;;;;;5037886;28;20898;-82
2023/01/10 04:42:08;;;;;;;7.55;4.78;;;4.90;99.90;;;;;;5037430;28;20307;-81
2023/01/10 04:44:35;;;;;;;1.90;0.63;;;4.90;99.90;;;;;;5036663;28;20203;-81
2023/01/10 04:47:02;;;;;;;1.05;1.05;;;4.80;99.90;;;;;;5037722;28;20203;-80
2023/01/10 04:49:30;;;;;;;8.85;1.05;;;4.80;99.90;;;;;;5037070;28;20194;-80
2023/01/10 04:51:56;;;;;;;1.08;0.98;;;4.80;99.90;;;;;;5037459;28;20219;-78
2023/01/10 04:54:23;;;;;;;6.38;1.67;;;4.80;99.90;;;;;;5036943;28;20206;-79
2023/01/10 04:56:50;;;;;;;5.75;2.10;;;4.80;99.90;;;;;;5036893;28;20199;-80
2023/01/10 04:59:18;;;;;;;0.60;0.60;;;4.80;99.90;;;;;;5037151;28;20246;-80
2023/01/10 05:01:45;;;;;;;0.75;0.75;;;4.80;99.90;;;;;;5037842;28;20230;-80
2023/01/10 05:04:12;;;;;;;0.60;0.50;;;4.80;99.90;;;;;;5036457;28;20199;-82
2023/01/10 05:06:39;;;;;;;2.65;1.73;;;4.80;99.90;;;;;;5038102;28;20620;-80
2023/01/10 05:09:06;;;;;;;2.90;0.88;;;4.80;99.90;;;;;;5036469;28;20199;-80
2023/01/10 05:11:33;;;;;;;11.50;2.58;;;4.70;99.90;;;;;;5038055;28;20580;-81
2023/01/10 05:14:00;;;;;;;2.45;2.17;;;4.70;99.90;;;;;;5036247;28;20195;-78
2023/01/10 05:16:29;;;;;;;1.05;0.95;;;4.70;99.90;;;;;;5036889;28;20600;-82
2023/01/10 05:18:55;;;;;;;4.82;1.77;;;4.60;99.90;;;;;;5037028;28;20225;-81
2023/01/10 05:21:22;;;;;;;0.70;0.70;;;4.60;99.90;;;;;;5036825;28;20788;-80
2023/01/10 05:23:49;;;;;;;4.63;1.88;;;4.50;99.90;;;;;;5036732;28;20201;-80
2023/01/10 05:26:18;;;;;;;0.50;0.40;;;4.50;99.90;;;;;;5035977;28;20297;-80
2023/01/10 05:28:45;;;;;;;0.85;0.85;;;4.50;99.90;;;;;;5036754;28;20191;-81
2023/01/10 05:31:15;;;;;;;1.25;1.15;;;4.50;99.90;;;;;;5035966;28;20203;-80
2023/01/10 05:33:46;;;;;;;4.43;1.25;;;4.50;99.90;;;;;;5036265;28;20684;-81
2023/01/10 05:36:13;;;;;;;1.15;1.02;;;4.50;99.90;;;;;;5035724;28;20202;-79
2023/01/10 05:38:40;;;;;;;3.03;2.83;;;4.50;99.90;;;;;;5036298;28;20251;-78
2023/01/10 05:41:07;;;;;;;2.67;1.63;;;4.50;99.90;;;;;;5036606;28;20254;-79
2023/01/10 05:43:34;;;;;;;4.82;3.13;;;4.40;99.90;;;;;;5036016;28;20290;-79
2023/01/10 05:46:01;;;;;;;4.43;1.50;;;4.40;99.90;;;;;;5034656;28;20952;-79
2023/01/10 05:48:28;;;;;;;1.40;1.20;;;4.40;99.90;;;;;;5036632;28;20293;-79
2023/01/10 05:50:56;;;;;;;0.80;0.80;;;4.40;99.90;;;;;;5036417;28;20231;-81
2023/01/10 05:53:23;;;;;;;0.65;0.60;;;4.40;99.90;;;;;;5035500;28;20200;-81
2023/01/10 05:55:54;;;;;;;6.18;1.77;;;4.40;99.90;;;;;;5035392;28;20234;-81
2023/01/10 05:58:21;;;;;;;0.65;0.65;;;4.40;99.90;;;;;;5035947;28;20198;-81
2023/01/10 06:00:48;;;;;;;2.45;0.98;;;4.40;99.90;;;;;;5035425;28;20197;-81
2023/01/10 06:03:15;;;;;;;2.67;2.50;;;4.40;99.90;;;;;;5035573;28;20215;-79
2023/01/10 06:05:42;;;;;;;0.60;0.60;;;4.40;99.90;;;;;;5035811;28;20655;-81
2023/01/10 06:08:10;;;;;;;0.55;0.55;;;4.40;99.90;;;;;;5036674;28;20665;-80
2023/01/10 06:10:37;;;;;;;0.50;0.40;;;4.30;99.90;;;;;;5034333;28;20192;-80
2023/01/10 06:13:04;;;;;;;1.52;1.42;;;4.40;99.90;;;;;;5036072;28;20605;-79
2023/01/10 06:15:32;;;;;;;2.22;0.93;;;4.30;99.90;;;;;;5035903;28;20223;-79
2023/01/10 06:17:59;;;;;;;1.50;1.35;;;4.30;99.90;;;;;;5037227;28;20200;-80
2023/01/10 06:20:25;;;;;;;4.70;3.05;;;4.30;99.90;;;;;;5036780;28;20309;-81
2023/01/10 06:22:53;;;;;;;2.80;2.58;;;4.30;99.90;;;;;;5036381;28;20305;-80
2023/01/10 06:25:21;;;;;;;6.35;5.78;;;4.30;99.90;;;;;;5034859;28;20271;-81
2023/01/10 06:27:48;;;;;;;1.95;0.98;;;4.40;99.90;;;;;;5035876;28;20191;-81
2023/01/10 06:30:15;;;;;;;1.08;0.98;;;4.40;99.90;;;;;;5036282;28;20673;-80
2023/01/10 06:32:42;;;;;;;3.10;0.75;;;4.30;99.90;;;;;;5036113;28;20225;-81
2023/01/10 06:35:09;;;;;;;4.07;2.78;;;4.40;99.90;;;;;;5034952;28;20203;-81
2023/01/10 06:37:36;;;;;;;3.88;1.20;;;4.40;99.90;;;;;;5036277;28;20201;-80
2023/01/10 06:40:04;;;;;;;1.75;1.65;;;4.40;99.90;;;;;;5036536;28;20211;-81
2023/01/10 06:42:32;;;;;;;2.38;2.13;;;4.40;99.90;;;;;;5036133;28;20223;-81
2023/01/10 06:44:59;;;;;;;0.90;0.90;;;4.40;99.90;;;;;;5035595;28;20322;-81
2023/01/10 06:47:26;;;;;;;2.17;1.38;;;4.30;99.90;;;;;;5036356;28;20277;-80
2023/01/10 06:49:53;;;;;;;8.32;1.70;;;4.30;99.90;;;;;;5036576;28;20614;-79
2023/01/10 06:52:19;;;;;;;2.05;1.33;;;4.30;99.90;;;;;;5036296;28;20254;-80
2023/01/10 06:54:47;;;;;;;4.18;3.42;;;4.30;99.90;;;;;;5035141;28;20231;-81
2023/01/10 06:57:15;;;;;;;1.27;1.25;;;4.40;99.90;;;;;;5035901;28;20218;-81
2023/01/10 06:59:43;;;;;;;1.75;1.65;;;4.40;99.90;;;;;;5035698;28;20746;-80
2023/01/10 07:02:11;;;;;;;2.08;1.98;;;4.50;99.90;;;;;;5036424;28;20677;-81
2023/01/10 07:04:38;;;;;;;9.43;1.63;;;4.40;99.90;;;;;;5035334;28;20202;-80
2023/01/10 07:07:05;;;;;;;0.50;0.50;;;4.50;99.90;;;;;;5036379;28;20191;-80
2023/01/10 07:09:32;;;;;;;1.27;1.25;;;4.50;99.90;;;;;;5033991;28;20285;-80
2023/01/10 07:11:59;;;;;;;3.90;1.20;;;4.50;99.90;;;;;;5036042;28;20233;-77
2023/01/10 07:14:25;;;;;;;0.50;0.40;;;4.60;99.90;;;;;;5039682;28;20624;-80
2023/01/10 07:16:53;;;;;;;0.50;0.40;;;4.60;99.90;;;;;;5040681;28;20192;-80
2023/01/10 07:19:21;;;;;;;0.50;0.50;;;4.60;99.90;;;;;;5039744;28;20211;-81
2023/01/10 07:21:47;;;;;;;4.20;1.88;;;4.70;99.90;;;;;;5039412;28;20223;-81
2023/01/10 07:24:14;;;;;;;2.05;1.88;;;4.70;99.90;;;;;;5038254;28;20271;-80
2023/01/10 07:26:41;;;;;;;1.90;1.52;;;4.70;99.90;;;;;;5038812;28;20199;-82
2023/01/10 07:36:55;;;;;;;13.17;3.50;;;4.70;99.90;;;;;;4753658;22;10001883;-81
2023/01/10 07:39:22;;;;;;;5.30;4.80;;;4.70;99.90;;;;;;5003938;28;20326;-80
2023/01/10 07:41:51;;;;;;;5.10;4.03;;;4.70;99.90;;;;;;5001444;28;20197;-80
2023/01/10 07:44:18;;;;;;;13.52;6.50;;;4.80;99.90;;;;;;4995555;28;20204;-79
2023/01/10 07:46:45;;;;;;;8.25;6.30;;;4.80;99.90;;;;;;4980141;28;20517;-80
2023/01/10 07:49:12;;;;;;;1.63;1.52;;;4.80;99.90;;;;;;4979649;28;20200;-81
2023/01/10 07:51:39;;;;;;;11.80;9.32;;;4.80;99.90;;;;;;4981232;28;20201;-81
2023/01/10 07:54:07;;;;;;;22.27;4.75;;;4.80;99.90;;;;;;4980355;28;20217;-80
2023/01/10 07:56:34;;;;;;;5.05;4.60;;;4.90;99.90;;;;;;4977474;28;20217;-80
2023/01/10 07:59:01;;;;;;;2.65;2.55;;;4.90;99.90;;;;;;4980511;28;20217;-80
2023/01/10 08:01:29;;;;;;;9.02;6.20;;;4.90;99.90;;;;;;4979930;28;20204;-81
2023/01/10 08:03:57;;;;;;;4.70;3.22;;;5.00;99.90;;;;;;4979116;28;20197;-79
2023/01/10 08:06:24;;;;;;;15.25;4.63;;;5.00;99.90;;;;;;4978439;28;20221;-79
2023/01/10 08:08:50;;;;;;;10.18;5.80;;;5.00;99.90;;;;;;4979056;28;20201;-77
2023/01/10 08:11:19;;;;;;;9.55;5.75;;;5.00;99.90;;;;;;4980510;28;20197;-80
2023/01/10 08:13:45;;;;;;;6.72;4.97;;;5.00;99.90;;;;;;4979668;28;20204;-80
2023/01/10 08:16:14;;;;;;;11.85;6.65;;;5.00;99.90;;;;;;4979066;28;20221;-80
2023/01/10 08:18:42;;;;;;;23.13;7.50;;;5.10;99.90;;;;;;4979302;28;20272;-81
2023/01/10 08:21:09;;;;;;;4.63;4.20;;;5.10;99.90;;;;;;4979711;28;20312;-79
2023/01/10 08:23:36;;;;;;;11.18;4.32;;;5.20;99.90;;;;;;4978959;28;20197;-79
2023/01/10 08:26:03;;;;;;;14.00;3.78;;;5.20;99.90;;;;;;4978384;28;20320;-79
2023/01/10 08:28:31;;;;;;;9.00;4.43;;;5.30;99.90;;;;;;4979647;28;20280;-80
2023/01/10 08:30:58;;;;;;;4.13;1.95;;;5.30;99.90;;;;;;4979304;28;20624;-77
2023/01/10 08:33:26;;;;;;;14.18;2.67;;;5.40;99.90;;;;;;4978794;28;20205;-80
2023/01/10 08:35:53;;;;;;;3.97;2.05;;;5.40;99.90;;;;;;4978793;28;20259;-80
2023/01/10 08:38:19;;;;;;;25.92;4.22;;;5.50;99.90;;;;;;4979238;28;20239;-80
2023/01/10 08:40:46;;;;;;;3.35;2.25;;;5.50;99.90;;;;;;4978470;28;20227;-80
2023/01/10 08:43:13;;;;;;;2.22;0.75;;;5.40;99.90;;;;;;4979362;28;20212;-81
2023/01/10 08:45:42;;;;;;;7.40;3.20;;;5.30;99.90;;;;;;4978562;28;20732;-79
2023/01/10 08:48:09;;;;;;;4.20;3.80;;;5.30;99.90;;;;;;4980002;28;20284;-80
2023/01/10 08:50:37;;;;;;;21.42;1.15;;;5.40;99.90;;;;;;4979311;28;20198;-80
2023/01/10 08:53:03;;;;;;;3.30;1.25;;;5.50;99.90;;;;;;4979892;28;20207;-80
2023/01/10 08:55:34;;;;;;;1.45;1.35;;;5.50;99.90;;;;;;4979619;28;20227;-80
2023/01/10 08:58:01;;;;;;;6.38;2.47;;;5.70;99.90;;;;;;4979662;28;20288;-79
2023/01/10 09:00:28;;;;;;;1.17;0.65;;;5.90;99.90;;;;;;4978866;28;20312;-80
2023/01/10 09:02:56;;;;;;;9.93;4.00;;;6.20;99.90;;;;;;4979148;28;20204;-80
2023/01/10 09:05:25;;;;;;;26.52;2.95;;;6.40;99.90;;;;;;4979234;28;20249;-81
2023/01/10 09:07:52;;;;;;;3.80;2.80;;;6.70;99.90;;;;;;4982872;28;20201;-80
2023/01/10 09:10:20;;;;;;;0.93;0.93;;;6.80;99.90;;;;;;4989250;28;20269;-80
2023/01/10 09:12:55;;;;;;;2.28;1.58;;;7.00;99.90;;;;;;4991053;28;20193;-81
2023/01/10 09:15:23;;;;;;;0.85;0.75;;;7.10;99.90;;;;;;4994779;28;20229;-80
2023/01/10 09:17:52;;;;;;;23.20;2.42;;;7.30;99.90;;;;;;4990571;28;20201;-79
2023/01/10 09:20:20;;;;;;;3.83;1.80;;;7.10;99.90;;;;;;4993621;28;20224;-81
2023/01/10 09:22:47;;;;;;;7.13;1.90;;;7.10;99.90;;;;;;4994939;28;20232;-81
2023/01/10 09:25:14;;;;;;;7.80;2.33;;;7.10;99.90;;;;;;4994416;28;20285;-79
2023/01/10 09:27:41;;;;;;;2.35;0.90;;;7.10;99.90;;;;;;4995445;28;20201;-80
2023/01/10 09:30:09;;;;;;;11.02;2.17;;;7.10;99.90;;;;;;4997052;28;20245;-80
2023/01/10 09:32:36;;;;;;;3.10;2.42;;;7.30;99.90;;;;;;4997578;28;20261;-80
2023/01/10 09:35:03;;;;;;;0.55;0.55;;;7.50;99.90;;;;;;4996268;28;20209;-81
2023/01/10 09:37:32;;;;;;;7.00;1.83;;;7.50;99.90;;;;;;4987094;28;20203;-81
2023/01/10 09:39:59;;;;;;;0.95;0.95;;;7.60;99.90;;;;;;4980634;28;20205;-79
2023/01/10 09:42:38;;;;;;;2.25;0.80;;;7.60;99.90;;;;;;4980713;28;20284;-79
2023/01/10 09:45:16;;;;;;;3.35;1.58;;;7.60;99.90;;;;;;4979338;28;20702;-80
2023/01/10 09:47:53;;;;;;;27.42;4.00;;;7.30;99.90;;;;;;4992212;28;20201;-79
2023/01/10 09:50:27;;;;;;;6.03;1.77;;;7.10;99.90;;;;;;4986935;28;20204;-79
2023/01/10 09:53:03;;;;;;;0.68;0.68;;;7.00;99.90;;;;;;4983941;28;20181;-77
2023/01/10 09:55:32;;;;;;;3.22;2.05;;;6.80;99.90;;;;;;4983641;28;20229;-80
2023/01/10 09:58:03;;;;;;;10.60;2.03;;;6.60;99.90;;;;;;4981354;28;20229;-79
2023/01/10 10:00:38;;;;;;;11.05;3.33;;;6.60;99.90;;;;;;4980729;28;20201;-79
2023/01/10 10:03:12;;;;;;;2.25;1.70;;;6.70;99.90;;;;;;4985200;28;20694;-79
2023/01/10 10:05:39;;;;;;;3.20;1.50;;;6.80;99.90;;;;;;4982669;28;20224;-78
2023/01/10 10:08:15;;;;;;;10.75;3.78;;;6.90;99.90;;;;;;4981134;28;20198;-77
2023/01/10 10:10:48;;;;;;;5.38;1.83;;;7.00;99.90;;;;;;4978943;28;20199;-78
2023/01/10 10:13:21;;;;;;;2.08;1.60;;;7.10;99.90;;;;;;4976245;28;20204;-76
2023/01/10 10:15:55;;;;;;;5.88;1.17;;;7.10;99.90;;;;;;4973763;28;20606;-79
2023/01/10 10:18:35;;;;;;;1.40;1.02;;;7.10;99.90;;;;;;4977588;28;20213;-77
2023/01/10 10:21:06;;;;;;;3.75;1.92;;;7.20;99.90;;;;;;4976933;28;20223;-80
2023/01/10 10:24:00;;;;;;;1.35;1.25;;;7.20;99.90;;;;;;4981384;28;20204;-79
2023/01/10 10:26:33;;;;;;;4.05;1.65;;;7.20;99.90;;;;;;4977743;28;20217;-79
2023/01/10 10:29:26;;;;;;;22.70;1.75;;;7.30;99.90;;;;;;4979433;28;20182;-80
2023/01/10 10:32:14;;;;;;;0.70;0.70;;;7.30;99.90;;;;;;4978146;28;20291;-81
2023/01/10 10:34:48;;;;;;;1.05;1.00;;;7.20;99.90;;;;;;4981145;28;20210;-81
2023/01/10 10:37:20;;;;;;;7.53;2.38;;;7.20;99.90;;;;;;4981977;28;20236;-80
2023/01/10 10:39:54;;;;;;;1.30;1.05;;;7.00;99.90;;;;;;4981904;28;20236;-78
2023/01/10 10:42:21;;;;;;;4.28;0.95;;;7.20;99.90;;;;;;4981964;28;20284;-81
2023/01/10 10:44:53;;;;;;;3.05;0.70;;;7.30;99.90;;;;;;4982076;28;20301;-77
2023/01/10 10:47:21;;;;;;;0.80;0.80;;;7.20;99.90;;;;;;4981007;28;20611;-82
2023/01/10 10:49:54;;;;;;;13.15;2.15;;;7.20;99.90;;;;;;4981072;28;20281;-79
2023/01/10 10:52:25;;;;;;;0.60;0.60;;;7.20;99.90;;;;;;4978889;28;20197;-82
2023/01/10 10:54:54;;;;;;;0.85;0.85;;;7.20;99.90;;;;;;4982539;28;20184;-80
2023/01/10 10:57:24;;;;;;;1.27;1.27;;;7.30;99.90;;;;;;4982710;28;20260;-82
2023/01/10 10:59:51;;;;;;;1.08;0.70;;;7.50;99.90;;;;;;4982962;28;20205;-79
2023/01/10 11:02:23;;;;;;;1.63;1.52;;;7.60;99.90;;;;;;4982281;28;20203;-79
2023/01/10 11:04:52;;;;;;;9.70;1.05;;;7.60;99.90;;;;;;4979897;28;20205;-78
2023/01/10 11:07:20;;;;;;;1.63;1.40;;;7.60;99.90;;;;;;4981269;28;20204;-79
2023/01/10 11:09:51;;;;;;;3.45;0.70;;;7.40;99.90;;;;;;4980084;28;20197;-79
2023/01/10 11:12:21;;;;;;;4.57;1.58;;;7.30;99.90;;;;;;4979746;28;20815;-78
2023/01/10 11:14:50;;;;;;;3.80;1.45;;;7.20;99.90;;;;;;4981232;28;20281;-80
2023/01/10 11:17:22;;;;;;;1.25;0.60;;;7.20;99.90;;;;;;4982228;28;20720;-80
2023/01/10 11:19:57;;;;;;;0.60;0.60;;;7.20;99.90;;;;;;4983604;28;20205;-80
2023/01/10 11:22:25;;;;;;;3.08;1.23;;;7.30;99.90;;;;;;4977414;28;20205;-79
2023/01/10 11:24:55;;;;;;;0.88;0.60;;;7.30;99.90;;;;;;4977016;28;20248;-79
2023/01/10 11:27:26;;;;;;;2.88;1.63;;;7.40;99.90;;;;;;4977573;28;20216;-79
2023/01/10 11:29:56;;;;;;;7.25;2.15;;;7.40;99.90;;;;;;4979222;28;20213;-79
2023/01/10 11:32:33;;;;;;;1.50;1.40;;;7.50;99.90;;;;;;4977961;28;20193;-80
2023/01/10 11:35:02;;;;;;;2.15;1.60;;;7.40;99.90;;;;;;4977111;28;20729;-80
2023/01/10 11:37:31;;;;;;;0.70;0.70;;;7.50;99.90;;;;;;4977177;28;20197;-80
2023/01/10 11:40:22;;;;;;;3.30;1.60;;;7.50;99.90;;;;;;4977345;28;20192;-79
2023/01/10 11:42:53;;;;;;;6.10;1.73;;;7.50;99.90;;;;;;4978844;28;20198;-79
2023/01/10 11:45:34;;;;;;;5.93;1.33;;;7.60;99.90;;;;;;4977351;28;20288;-79
2023/01/10 11:48:09;;;;;;;0.60;0.60;;;7.70;99.90;;;;;;4979378;28;20693;-79
2023/01/10 11:50:39;;;;;;;9.85;2.90;;;7.70;99.90;;;;;;4978212;28;20189;-78
2023/01/10 11:53:07;;;;;;;6.55;0.93;;;7.70;99.90;;;;;;4977918;28;20231;-78
2023/01/10 11:55:38;;;;;;;1.25;1.15;;;7.70;99.90;;;;;;4977610;28;20245;-79
2023/01/10 11:58:11;;;;;;;4.43;1.20;;;7.70;99.90;;;;;;4989174;28;20272;-78
2023/01/10 12:00:41;;;;;;;0.50;0.40;;;7.70;99.90;;;;;;4996492;28;20217;-79
2023/01/10 12:03:25;;;;;;;1.23;1.08;;;7.70;99.90;;;;;;4982192;28;20206;-78
2023/01/10 12:05:54;;;;;;;2.10;1.67;;;7.80;99.90;;;;;;4981594;28;20586;-78
2023/01/10 12:08:27;;;;;;;1.70;1.13;;;7.70;99.90;;;;;;4980678;28;20289;-80
2023/01/10 12:11:00;;;;;;;3.15;1.33;;;7.70;99.90;;;;;;4982074;28;20174;-79
2023/01/10 12:13:29;;;;;;;0.63;0.60;;;7.70;99.90;;;;;;4980750;28;20193;-81
2023/01/10 12:16:18;;;;;;;0.60;0.60;;;7.70;99.90;;;;;;4982110;28;20217;-78
2023/01/10 12:18:45;;;;;;;1.25;0.70;;;7.60;99.90;;;;;;4984368;28;20209;-81
2023/01/10 12:21:14;;;;;;;5.75;1.23;;;7.60;99.90;;;;;;4982009;28;20217;-79
2023/01/10 12:23:45;;;;;;;0.95;0.95;;;7.70;99.90;;;;;;4981514;28;20193;-81
2023/01/10 12:26:13;;;;;;;1.13;0.60;;;7.80;99.90;;;;;;4988982;28;20265;-79
2023/01/10 12:28:46;;;;;;;0.50;0.50;;;7.70;99.90;;;;;;5002284;28;20193;-79
2023/01/10 12:31:14;;;;;;;3.42;1.25;;;7.70;99.90;;;;;;4988729;28;20224;-81
2023/01/10 12:33:46;;;;;;;0.57;0.55;;;7.90;99.90;;;;;;4982551;28;20201;-81
2023/01/10 12:36:23;;;;;;;2.72;1.60;;;8.00;99.90;;;;;;4993451;28;20224;-80
2023/01/10 12:39:04;;;;;;;0.50;0.40;;;8.00;99.90;;;;;;4999979;28;20203;-81
2023/01/10 12:44:34;;;;;;;0.55;0.55;;;8.10;99.90;;;;;;5007656;28;20224;-79
2023/01/10 12:47:09;;;;;;;0.70;0.52;;;8.20;99.90;;;;;;5016543;28;20218;-76
2023/01/10 12:49:44;;;;;;;4.53;0.70;;;8.20;99.90;;;;;;5020116;28;20625;-80
2023/01/10 12:52:14;;;;;;;0.75;0.60;;;8.30;99.90;;;;;;5019761;28;20293;-81
2023/01/10 12:54:41;;;;;;;0.50;0.40;;;8.40;99.90;;;;;;5019212;28;20216;-78
2023/01/10 12:57:21;;;;;;;0.50;0.40;;;8.30;99.90;;;;;;5020286;28;20223;-80
2023/01/10 12:59:51;;;;;;;3.10;0.70;;;8.30;99.90;;;;;;5018907;28;20235;-79
2023/01/10 13:02:22;;;;;;;0.50;0.40;;;8.40;99.90;;;;;;5019593;28;20314;-80
2023/01/10 13:04:53;;;;;;;0.50;0.40;;;8.40;99.90;;;;;;5020620;28;20199;-81
2023/01/10 13:07:21;;;;;;;1.08;0.98;;;8.40;99.90;;;;;;5020684;28;20192;-80
2023/01/10 13:09:51;;;;;;;2.35;0.85;;;8.40;99.90;;;;;;5018994;28;20202;-81
2023/01/10 13:12:23;;;;;;;0.50;0.40;;;8.40;99.90;;;;;;5019621;28;20298;-82
2023/01/10 13:14:57;;;;;;;0.80;0.73;;;8.40;99.90;;;;;;5018958;28;20188;-81
2023/01/10 13:17:34;;;;;;;0.90;0.90;;;8.40;99.90;;;;;;5018560;28;20544;-78
2023/01/10 13:20:39;;;;;;;1.15;1.08;;;8.40;99.90;;;;;;5019072;28;20180;-79
2023/01/10 13:23:28;;;;;;;0.60;0.50;;;8.30;99.90;;;;;;4939395;29;20234;-79
2023/01/10 13:26:04;;;;;;;0.50;0.40;;;8.40;99.90;;;;;;4939750;29;20770;-80
2023/01/10 13:28:34;;;;;;;0.50;0.40;;;8.40;99.90;;;;;;4939459;29;20194;-79
2023/01/10 13:31:05;;;;;;;0.65;0.55;;;8.30;99.90;;;;;;4939379;29;20222;-81
2023/01/10 13:33:39;;;;;;;3.83;0.75;;;8.30;99.90;;;;;;4939427;29;20281;-81